sensor_id;sensor_type;location;lat;lon;timestamp;pressure;altitude;pressure_sealevel;temperature;humidity
80629;BME280;69983;42.370;-71.210;2024-03-06T00:00:20;101725.09;;;22.27;35.73
80629;BME280;69983;42.370;-71.210;2024-03-06T00:02:23;101712.73;;;22.26;35.76
80629;BME280;69983;42.370;-71.210;2024-03-06T00:04:21;101711.94;;;22.10;35.94
80629;BME280;69983;42.370;-71.210;2024-03-06T00:06:21;101707.45;;;22.17;35.56
80629;BME280;69983;42.370;-71.210;2024-03-06T00:08:26;101698.76;;;21.89;35.90
80629;BME280;69983;42.370;-71.210;2024-03-06T00:10:21;101699.39;;;21.81;36.03
80629;BME280;69983;42.370;-71.210;2024-03-06T00:12:22;101693.15;;;22.33;35.70
80629;BME280;69983;42.370;-71.210;2024-03-06T00:14:23;101684.00;;;21.80;35.76
80629;BME280;69983;42.370;-71.210;2024-03-06T00:16:23;101679.07;;;22.40;35.62
80629;BME280;69983;42.370;-71.210;2024-03-06T00:18:23;101674.86;;;22.22;35.65
80629;BME280;69983;42.370;-71.210;2024-03-06T00:20:23;101671.76;;;22.30;35.62
80629;BME280;69983;42.370;-71.210;2024-03-06T00:22:23;101671.19;;;22.00;36.00
80629;BME280;69983;42.370;-71.210;2024-03-06T00:24:25;101666.98;;;21.77;36.03
80629;BME280;69983;42.370;-71.210;2024-03-06T00:26:24;101659.73;;;21.96;35.88
80629;BME280;69983;42.370;-71.210;2024-03-06T00:28:25;101655.03;;;22.46;35.97
80629;BME280;69983;42.370;-71.210;2024-03-06T00:30:26;101650.57;;;21.97;36.29
80629;BME280;69983;42.370;-71.210;2024-03-06T00:32:26;101650.32;;;22.41;36.10
80629;BME280;69983;42.370;-71.210;2024-03-06T00:34:27;101645.11;;;22.04;35.90
80629;BME280;69983;42.370;-71.210;2024-03-06T00:36:27;101640.44;;;22.43;35.98
80629;BME280;69983;42.370;-71.210;2024-03-06T00:38:27;101649.24;;;22.16;36.02
80629;BME280;69983;42.370;-71.210;2024-03-06T00:40:34;101627.80;;;22.08;36.15
80629;BME280;69983;42.370;-71.210;2024-03-06T00:42:28;101635.20;;;22.06;36.23
80629;BME280;69983;42.370;-71.210;2024-03-06T00:44:29;101630.11;;;22.28;36.01
80629;BME280;69983;42.370;-71.210;2024-03-06T00:46:29;101622.70;;;22.30;36.04
80629;BME280;69983;42.370;-71.210;2024-03-06T00:48:29;101622.20;;;22.04;36.34
80629;BME280;69983;42.370;-71.210;2024-03-06T00:50:29;101620.59;;;21.82;36.63
80629;BME280;69983;42.370;-71.210;2024-03-06T00:52:31;101626.33;;;21.81;36.71
80629;BME280;69983;42.370;-71.210;2024-03-06T00:54:31;101631.82;;;22.24;36.49
80629;BME280;69983;42.370;-71.210;2024-03-06T00:56:31;101617.36;;;22.19;36.28
80629;BME280;69983;42.370;-71.210;2024-03-06T00:58:32;101593.30;;;22.24;36.23
80629;BME280;69983;42.370;-71.210;2024-03-06T01:00:35;101611.24;;;22.15;36.00
80629;BME280;69983;42.370;-71.210;2024-03-06T01:02:33;101608.87;;;22.34;36.11
80629;BME280;69983;42.370;-71.210;2024-03-06T01:04:33;101586.33;;;22.02;36.17
80629;BME280;69983;42.370;-71.210;2024-03-06T01:06:34;101599.16;;;22.08;36.08
80629;BME280;69983;42.370;-71.210;2024-03-06T01:08:34;101616.94;;;22.10;36.04
80629;BME280;69983;42.370;-71.210;2024-03-06T01:10:35;101595.23;;;22.34;36.06
80629;BME280;69983;42.370;-71.210;2024-03-06T01:12:36;101578.44;;;22.37;36.04
80629;BME280;69983;42.370;-71.210;2024-03-06T01:14:36;101568.79;;;22.31;36.13
80629;BME280;69983;42.370;-71.210;2024-03-06T01:16:38;101563.02;;;22.29;36.22
80629;BME280;69983;42.370;-71.210;2024-03-06T01:18:41;101555.99;;;22.12;36.20
80629;BME280;69983;42.370;-71.210;2024-03-06T01:20:41;101545.83;;;22.00;36.43
80629;BME280;69983;42.370;-71.210;2024-03-06T01:22:39;101542.08;;;22.14;36.35
80629;BME280;69983;42.370;-71.210;2024-03-06T01:24:40;101533.65;;;22.35;36.52
80629;BME280;69983;42.370;-71.210;2024-03-06T01:26:39;101533.66;;;22.12;36.61
80629;BME280;69983;42.370;-71.210;2024-03-06T01:28:42;101521.46;;;22.26;36.79
80629;BME280;69983;42.370;-71.210;2024-03-06T01:30:41;101515.45;;;22.21;36.61
80629;BME280;69983;42.370;-71.210;2024-03-06T01:32:41;101497.11;;;22.08;36.82
80629;BME280;69983;42.370;-71.210;2024-03-06T01:34:41;101488.52;;;22.08;36.89
80629;BME280;69983;42.370;-71.210;2024-03-06T01:36:41;101489.79;;;22.05;36.99
80629;BME280;69983;42.370;-71.210;2024-03-06T01:38:41;101485.87;;;22.24;37.09
80629;BME280;69983;42.370;-71.210;2024-03-06T01:40:46;101480.69;;;22.17;36.90
80629;BME280;69983;42.370;-71.210;2024-03-06T01:42:43;101470.09;;;21.97;37.18
80629;BME280;69983;42.370;-71.210;2024-03-06T01:44:43;101474.22;;;22.20;36.90
80629;BME280;69983;42.370;-71.210;2024-03-06T01:46:45;101481.94;;;22.01;37.16
80629;BME280;69983;42.370;-71.210;2024-03-06T01:48:45;101466.93;;;22.37;37.02
80629;BME280;69983;42.370;-71.210;2024-03-06T01:50:49;101461.44;;;22.10;37.05
80629;BME280;69983;42.370;-71.210;2024-03-06T01:52:47;101467.27;;;22.15;37.09
80629;BME280;69983;42.370;-71.210;2024-03-06T01:54:48;101473.06;;;22.05;37.30
80629;BME280;69983;42.370;-71.210;2024-03-06T01:56:48;101463.51;;;22.61;36.92
80629;BME280;69983;42.370;-71.210;2024-03-06T01:58:47;101460.40;;;22.46;37.14
80629;BME280;69983;42.370;-71.210;2024-03-06T02:00:49;101445.50;;;22.27;37.08
80629;BME280;69983;42.370;-71.210;2024-03-06T02:02:48;101444.33;;;22.58;36.99
80629;BME280;69983;42.370;-71.210;2024-03-06T02:04:49;101446.11;;;22.56;37.01
80629;BME280;69983;42.370;-71.210;2024-03-06T02:06:49;101444.46;;;22.29;37.03
80629;BME280;69983;42.370;-71.210;2024-03-06T02:08:49;101439.67;;;22.22;37.09
80629;BME280;69983;42.370;-71.210;2024-03-06T02:10:49;101445.49;;;22.06;37.29
80629;BME280;69983;42.370;-71.210;2024-03-06T02:12:50;101445.25;;;22.43;36.86
80629;BME280;69983;42.370;-71.210;2024-03-06T02:14:51;101449.10;;;22.14;37.18
80629;BME280;69983;42.370;-71.210;2024-03-06T02:16:52;101447.20;;;22.13;37.06
80629;BME280;69983;42.370;-71.210;2024-03-06T02:18:52;101452.76;;;22.13;36.96
80629;BME280;69983;42.370;-71.210;2024-03-06T02:20:52;101449.20;;;22.45;36.89
80629;BME280;69983;42.370;-71.210;2024-03-06T02:22:52;101458.38;;;22.28;37.14
80629;BME280;69983;42.370;-71.210;2024-03-06T02:24:52;101449.04;;;22.42;37.04
80629;BME280;69983;42.370;-71.210;2024-03-06T02:26:54;101434.34;;;22.38;36.79
80629;BME280;69983;42.370;-71.210;2024-03-06T02:28:55;101433.46;;;22.29;36.93
80629;BME280;69983;42.370;-71.210;2024-03-06T02:30:54;101442.17;;;22.54;36.96
80629;BME280;69983;42.370;-71.210;2024-03-06T02:32:55;101450.55;;;22.47;37.07
80629;BME280;69983;42.370;-71.210;2024-03-06T02:34:55;101445.78;;;22.77;36.98
80629;BME280;69983;42.370;-71.210;2024-03-06T02:36:56;101450.35;;;22.25;37.07
80629;BME280;69983;42.370;-71.210;2024-03-06T02:38:56;101456.65;;;22.32;37.24
80629;BME280;69983;42.370;-71.210;2024-03-06T02:40:57;101442.36;;;22.04;37.25
80629;BME280;69983;42.370;-71.210;2024-03-06T02:42:57;101441.85;;;22.38;37.14
80629;BME280;69983;42.370;-71.210;2024-03-06T02:44:58;101443.43;;;22.41;37.13
80629;BME280;69983;42.370;-71.210;2024-03-06T02:46:58;101460.89;;;22.53;36.96
80629;BME280;69983;42.370;-71.210;2024-03-06T02:48:58;101460.26;;;22.13;37.16
80629;BME280;69983;42.370;-71.210;2024-03-06T02:51:00;101462.29;;;22.21;37.06
80629;BME280;69983;42.370;-71.210;2024-03-06T02:52:59;101460.34;;;22.21;37.02
80629;BME280;69983;42.370;-71.210;2024-03-06T02:54:59;101464.44;;;22.41;37.07
80629;BME280;69983;42.370;-71.210;2024-03-06T02:57:03;101467.32;;;22.36;37.13
80629;BME280;69983;42.370;-71.210;2024-03-06T02:59:00;101471.92;;;22.04;37.23
80629;BME280;69983;42.370;-71.210;2024-03-06T03:01:01;101475.64;;;22.78;36.94
80629;BME280;69983;42.370;-71.210;2024-03-06T03:03:02;101478.80;;;22.22;36.96
80629;BME280;69983;42.370;-71.210;2024-03-06T03:05:02;101484.05;;;22.43;37.05
80629;BME280;69983;42.370;-71.210;2024-03-06T03:07:04;101488.64;;;22.53;36.60
80629;BME280;69983;42.370;-71.210;2024-03-06T03:09:04;101494.52;;;22.07;37.12
80629;BME280;69983;42.370;-71.210;2024-03-06T03:11:04;101498.78;;;22.50;36.92
80629;BME280;69983;42.370;-71.210;2024-03-06T03:13:04;101499.89;;;22.48;36.97
80629;BME280;69983;42.370;-71.210;2024-03-06T03:15:06;101499.04;;;22.34;36.88
80629;BME280;69983;42.370;-71.210;2024-03-06T03:17:05;101493.09;;;22.17;37.07
80629;BME280;69983;42.370;-71.210;2024-03-06T03:19:06;101496.20;;;22.55;36.92
80629;BME280;69983;42.370;-71.210;2024-03-06T03:21:09;101492.50;;;22.58;36.55
80629;BME280;69983;42.370;-71.210;2024-03-06T03:23:07;101488.76;;;22.37;36.89
80629;BME280;69983;42.370;-71.210;2024-03-06T03:25:08;101485.29;;;22.22;37.05
80629;BME280;69983;42.370;-71.210;2024-03-06T03:27:07;101484.60;;;21.85;37.54
80629;BME280;69983;42.370;-71.210;2024-03-06T03:29:08;101484.85;;;22.07;37.27
80629;BME280;69983;42.370;-71.210;2024-03-06T03:31:08;101481.05;;;22.53;37.03
80629;BME280;69983;42.370;-71.210;2024-03-06T03:33:09;101479.49;;;22.33;37.26
80629;BME280;69983;42.370;-71.210;2024-03-06T03:35:09;101480.84;;;22.47;37.05
80629;BME280;69983;42.370;-71.210;2024-03-06T03:37:12;101479.56;;;22.46;36.67
80629;BME280;69983;42.370;-71.210;2024-03-06T03:39:10;101481.70;;;22.37;36.75
80629;BME280;69983;42.370;-71.210;2024-03-06T03:41:11;101484.55;;;22.43;36.66
80629;BME280;69983;42.370;-71.210;2024-03-06T03:43:11;101483.63;;;22.50;36.53
80629;BME280;69983;42.370;-71.210;2024-03-06T03:45:11;101473.03;;;22.36;36.68
80629;BME280;69983;42.370;-71.210;2024-03-06T03:47:12;101468.19;;;22.49;36.80
80629;BME280;69983;42.370;-71.210;2024-03-06T03:49:13;101465.55;;;22.38;36.68
80629;BME280;69983;42.370;-71.210;2024-03-06T03:51:13;101468.68;;;22.66;36.67
80629;BME280;69983;42.370;-71.210;2024-03-06T03:53:14;101469.83;;;22.22;36.99
80629;BME280;69983;42.370;-71.210;2024-03-06T03:55:14;101470.62;;;22.23;36.99
80629;BME280;69983;42.370;-71.210;2024-03-06T03:57:16;101471.44;;;22.51;36.95
80629;BME280;69983;42.370;-71.210;2024-03-06T03:59:15;101469.20;;;22.25;36.99
80629;BME280;69983;42.370;-71.210;2024-03-06T04:01:16;101467.14;;;22.41;37.08
80629;BME280;69983;42.370;-71.210;2024-03-06T04:03:16;101468.71;;;22.04;37.23
80629;BME280;69983;42.370;-71.210;2024-03-06T04:05:16;101465.95;;;22.09;37.12
80629;BME280;69983;42.370;-71.210;2024-03-06T04:07:16;101465.14;;;22.26;37.12
80629;BME280;69983;42.370;-71.210;2024-03-06T04:09:17;101467.18;;;22.09;37.32
80629;BME280;69983;42.370;-71.210;2024-03-06T04:11:17;101464.61;;;22.40;36.91
80629;BME280;69983;42.370;-71.210;2024-03-06T04:13:17;101460.76;;;22.16;36.83
80629;BME280;69983;42.370;-71.210;2024-03-06T04:15:18;101454.58;;;22.37;37.17
80629;BME280;69983;42.370;-71.210;2024-03-06T04:17:18;101447.80;;;21.75;37.34
80629;BME280;69983;42.370;-71.210;2024-03-06T04:19:19;101443.26;;;22.36;37.11
80629;BME280;69983;42.370;-71.210;2024-03-06T04:21:20;101442.29;;;22.06;37.19
80629;BME280;69983;42.370;-71.210;2024-03-06T04:23:20;101447.58;;;22.11;37.10
80629;BME280;69983;42.370;-71.210;2024-03-06T04:25:20;101449.42;;;22.18;37.27
80629;BME280;69983;42.370;-71.210;2024-03-06T04:27:21;101450.86;;;22.03;37.11
80629;BME280;69983;42.370;-71.210;2024-03-06T04:29:21;101449.84;;;22.15;37.28
80629;BME280;69983;42.370;-71.210;2024-03-06T04:31:22;101453.35;;;21.96;37.24
80629;BME280;69983;42.370;-71.210;2024-03-06T04:33:22;101458.69;;;22.34;36.82
80629;BME280;69983;42.370;-71.210;2024-03-06T04:35:22;101463.04;;;22.11;36.86
80629;BME280;69983;42.370;-71.210;2024-03-06T04:37:24;101464.56;;;22.69;36.44
80629;BME280;69983;42.370;-71.210;2024-03-06T04:39:23;101471.00;;;22.11;36.82
80629;BME280;69983;42.370;-71.210;2024-03-06T04:41:25;101474.62;;;22.66;36.48
80629;BME280;69983;42.370;-71.210;2024-03-06T04:43:24;101473.54;;;22.03;36.96
80629;BME280;69983;42.370;-71.210;2024-03-06T04:45:25;101469.25;;;22.26;36.97
80629;BME280;69983;42.370;-71.210;2024-03-06T04:47:25;101465.06;;;21.98;36.95
80629;BME280;69983;42.370;-71.210;2024-03-06T04:49:26;101459.46;;;22.04;37.18
80629;BME280;69983;42.370;-71.210;2024-03-06T04:51:26;101464.37;;;22.01;37.22
80629;BME280;69983;42.370;-71.210;2024-03-06T04:53:26;101462.96;;;21.91;37.02
80629;BME280;69983;42.370;-71.210;2024-03-06T04:55:26;101464.71;;;22.12;37.09
80629;BME280;69983;42.370;-71.210;2024-03-06T04:57:27;101465.70;;;21.70;37.61
80629;BME280;69983;42.370;-71.210;2024-03-06T04:59:33;101467.36;;;21.44;37.98
80629;BME280;69983;42.370;-71.210;2024-03-06T05:01:28;101470.09;;;21.84;37.79
80629;BME280;69983;42.370;-71.210;2024-03-06T05:03:29;101470.62;;;21.52;38.23
80629;BME280;69983;42.370;-71.210;2024-03-06T05:05:29;101468.82;;;21.31;38.22
80629;BME280;69983;42.370;-71.210;2024-03-06T05:07:30;101465.39;;;21.09;38.25
80629;BME280;69983;42.370;-71.210;2024-03-06T05:09:30;101463.07;;;20.76;38.61
80629;BME280;69983;42.370;-71.210;2024-03-06T05:11:32;101454.66;;;21.38;38.46
80629;BME280;69983;42.370;-71.210;2024-03-06T05:13:31;101453.15;;;21.31;38.26
80629;BME280;69983;42.370;-71.210;2024-03-06T05:15:32;101452.04;;;21.41;38.33
80629;BME280;69983;42.370;-71.210;2024-03-06T05:17:37;101452.71;;;21.35;38.36
80629;BME280;69983;42.370;-71.210;2024-03-06T05:19:33;101455.99;;;21.14;38.60
80629;BME280;69983;42.370;-71.210;2024-03-06T05:21:34;101457.77;;;21.08;38.39
80629;BME280;69983;42.370;-71.210;2024-03-06T05:23:33;101466.77;;;21.34;38.42
80629;BME280;69983;42.370;-71.210;2024-03-06T05:25:34;101469.39;;;21.13;38.34
80629;BME280;69983;42.370;-71.210;2024-03-06T05:27:35;101468.50;;;21.07;38.43
80629;BME280;69983;42.370;-71.210;2024-03-06T05:29:36;101462.63;;;21.04;38.14
80629;BME280;69983;42.370;-71.210;2024-03-06T05:31:37;101464.50;;;21.43;38.01
80629;BME280;69983;42.370;-71.210;2024-03-06T05:33:37;101460.26;;;21.45;38.01
80629;BME280;69983;42.370;-71.210;2024-03-06T05:35:37;101467.02;;;21.43;37.63
80629;BME280;69983;42.370;-71.210;2024-03-06T05:37:38;101474.46;;;21.73;37.60
80629;BME280;69983;42.370;-71.210;2024-03-06T05:39:38;101475.36;;;22.26;37.16
80629;BME280;69983;42.370;-71.210;2024-03-06T05:41:39;101472.22;;;21.49;37.64
80629;BME280;69983;42.370;-71.210;2024-03-06T05:43:39;101471.43;;;21.74;37.27
80629;BME280;69983;42.370;-71.210;2024-03-06T05:45:39;101469.04;;;21.99;37.01
80629;BME280;69983;42.370;-71.210;2024-03-06T05:47:41;101467.28;;;21.81;37.19
80629;BME280;69983;42.370;-71.210;2024-03-06T05:49:40;101470.96;;;22.57;36.88
80629;BME280;69983;42.370;-71.210;2024-03-06T05:51:41;101472.61;;;21.81;37.24
80629;BME280;69983;42.370;-71.210;2024-03-06T05:53:48;101476.10;;;22.26;36.92
80629;BME280;69983;42.370;-71.210;2024-03-06T05:55:42;101469.22;;;22.02;37.21
80629;BME280;69983;42.370;-71.210;2024-03-06T05:57:42;101471.64;;;22.06;36.87
80629;BME280;69983;42.370;-71.210;2024-03-06T05:59:42;101472.06;;;21.75;37.23
80629;BME280;69983;42.370;-71.210;2024-03-06T06:01:44;101476.13;;;22.03;36.91
80629;BME280;69983;42.370;-71.210;2024-03-06T06:03:43;101472.99;;;22.09;37.10
80629;BME280;69983;42.370;-71.210;2024-03-06T06:05:44;101471.90;;;22.15;36.71
80629;BME280;69983;42.370;-71.210;2024-03-06T06:07:44;101469.68;;;22.09;36.77
80629;BME280;69983;42.370;-71.210;2024-03-06T06:09:45;101470.51;;;22.49;36.29
80629;BME280;69983;42.370;-71.210;2024-03-06T06:11:45;101468.35;;;22.66;36.04
80629;BME280;69983;42.370;-71.210;2024-03-06T06:13:45;101460.67;;;22.66;36.06
80629;BME280;69983;42.370;-71.210;2024-03-06T06:15:45;101458.68;;;22.47;36.24
80629;BME280;69983;42.370;-71.210;2024-03-06T06:17:46;101453.14;;;22.17;36.60
80629;BME280;69983;42.370;-71.210;2024-03-06T06:19:46;101452.55;;;22.13;36.71
80629;BME280;69983;42.370;-71.210;2024-03-06T06:21:53;101452.89;;;21.72;36.90
80629;BME280;69983;42.370;-71.210;2024-03-06T06:23:47;101452.47;;;22.20;36.62
80629;BME280;69983;42.370;-71.210;2024-03-06T06:25:47;101460.84;;;21.98;36.60
80629;BME280;69983;42.370;-71.210;2024-03-06T06:27:48;101463.00;;;22.12;36.39
80629;BME280;69983;42.370;-71.210;2024-03-06T06:29:49;101460.21;;;22.08;36.49
80629;BME280;69983;42.370;-71.210;2024-03-06T06:31:49;101462.69;;;22.21;36.29
80629;BME280;69983;42.370;-71.210;2024-03-06T06:33:52;101462.12;;;22.22;36.28
80629;BME280;69983;42.370;-71.210;2024-03-06T06:35:49;101466.90;;;22.21;36.31
80629;BME280;69983;42.370;-71.210;2024-03-06T06:37:50;101464.24;;;22.69;36.29
80629;BME280;69983;42.370;-71.210;2024-03-06T06:39:50;101467.42;;;22.52;36.25
80629;BME280;69983;42.370;-71.210;2024-03-06T06:41:50;101468.46;;;22.16;36.39
80629;BME280;69983;42.370;-71.210;2024-03-06T06:43:51;101467.20;;;22.22;36.31
80629;BME280;69983;42.370;-71.210;2024-03-06T06:45:57;101463.76;;;22.43;36.35
80629;BME280;69983;42.370;-71.210;2024-03-06T06:47:52;101465.72;;;22.80;35.94
80629;BME280;69983;42.370;-71.210;2024-03-06T06:49:51;101463.36;;;22.31;36.51
80629;BME280;69983;42.370;-71.210;2024-03-06T06:51:52;101463.71;;;22.38;36.19
80629;BME280;69983;42.370;-71.210;2024-03-06T06:53:52;101459.27;;;22.53;36.20
80629;BME280;69983;42.370;-71.210;2024-03-06T06:55:52;101461.15;;;22.55;36.19
80629;BME280;69983;42.370;-71.210;2024-03-06T06:57:53;101464.23;;;22.81;35.92
80629;BME280;69983;42.370;-71.210;2024-03-06T06:59:54;101461.48;;;23.33;35.31
80629;BME280;69983;42.370;-71.210;2024-03-06T07:01:54;101460.46;;;23.59;34.90
80629;BME280;69983;42.370;-71.210;2024-03-06T07:03:55;101459.42;;;23.94;34.47
80629;BME280;69983;42.370;-71.210;2024-03-06T07:05:55;101465.82;;;23.76;34.63
80629;BME280;69983;42.370;-71.210;2024-03-06T07:07:56;101463.84;;;23.50;34.63
80629;BME280;69983;42.370;-71.210;2024-03-06T07:09:56;101463.49;;;23.12;34.77
80629;BME280;69983;42.370;-71.210;2024-03-06T07:11:56;101468.76;;;23.31;35.05
80629;BME280;69983;42.370;-71.210;2024-03-06T07:13:56;101468.63;;;23.23;34.87
80629;BME280;69983;42.370;-71.210;2024-03-06T07:15:56;101459.77;;;23.12;35.02
80629;BME280;69983;42.370;-71.210;2024-03-06T07:17:57;101461.09;;;23.09;35.05
80629;BME280;69983;42.370;-71.210;2024-03-06T07:19:57;101465.20;;;23.53;34.81
80629;BME280;69983;42.370;-71.210;2024-03-06T07:21:58;101464.41;;;22.94;34.91
80629;BME280;69983;42.370;-71.210;2024-03-06T07:23:58;101465.80;;;23.43;34.86
80629;BME280;69983;42.370;-71.210;2024-03-06T07:25:58;101466.47;;;23.23;34.82
80629;BME280;69983;42.370;-71.210;2024-03-06T07:28:00;101464.57;;;22.92;35.15
80629;BME280;69983;42.370;-71.210;2024-03-06T07:29:59;101464.03;;;23.11;35.19
80629;BME280;69983;42.370;-71.210;2024-03-06T07:32:00;101466.11;;;22.74;35.34
80629;BME280;69983;42.370;-71.210;2024-03-06T07:34:00;101459.52;;;22.91;35.13
80629;BME280;69983;42.370;-71.210;2024-03-06T07:36:01;101456.44;;;22.90;35.14
80629;BME280;69983;42.370;-71.210;2024-03-06T07:38:01;101456.29;;;23.10;35.18
80629;BME280;69983;42.370;-71.210;2024-03-06T07:40:02;101460.92;;;22.67;35.37
80629;BME280;69983;42.370;-71.210;2024-03-06T07:42:02;101462.90;;;22.61;35.76
80629;BME280;69983;42.370;-71.210;2024-03-06T07:44:02;101465.65;;;22.65;35.67
80629;BME280;69983;42.370;-71.210;2024-03-06T07:46:03;101462.89;;;22.95;35.33
80629;BME280;69983;42.370;-71.210;2024-03-06T07:48:05;101453.58;;;22.88;35.36
80629;BME280;69983;42.370;-71.210;2024-03-06T07:50:05;101445.52;;;22.99;35.31
80629;BME280;69983;42.370;-71.210;2024-03-06T07:52:05;101453.06;;;22.85;35.48
80629;BME280;69983;42.370;-71.210;2024-03-06T07:54:05;101450.03;;;22.95;35.38
80629;BME280;69983;42.370;-71.210;2024-03-06T07:56:07;101447.89;;;22.98;35.35
80629;BME280;69983;42.370;-71.210;2024-03-06T07:58:06;101450.91;;;22.93;35.42
80629;BME280;69983;42.370;-71.210;2024-03-06T08:00:08;101442.30;;;22.64;35.53
80629;BME280;69983;42.370;-71.210;2024-03-06T08:02:08;101439.92;;;22.80;35.67
80629;BME280;69983;42.370;-71.210;2024-03-06T08:04:07;101436.83;;;23.02;35.42
80629;BME280;69983;42.370;-71.210;2024-03-06T08:06:07;101447.69;;;22.66;35.80
80629;BME280;69983;42.370;-71.210;2024-03-06T08:08:08;101447.25;;;22.79;35.67
80629;BME280;69983;42.370;-71.210;2024-03-06T08:10:09;101443.55;;;23.11;35.24
80629;BME280;69983;42.370;-71.210;2024-03-06T08:12:08;101451.53;;;23.03;35.05
80629;BME280;69983;42.370;-71.210;2024-03-06T08:14:08;101454.76;;;22.85;35.26
80629;BME280;69983;42.370;-71.210;2024-03-06T08:16:09;101458.18;;;23.16;35.46
80629;BME280;69983;42.370;-71.210;2024-03-06T08:18:10;101458.85;;;22.93;35.42
80629;BME280;69983;42.370;-71.210;2024-03-06T08:20:10;101454.32;;;23.25;35.35
80629;BME280;69983;42.370;-71.210;2024-03-06T08:22:09;101453.27;;;22.90;35.44
80629;BME280;69983;42.370;-71.210;2024-03-06T08:24:09;101449.34;;;22.93;35.55
80629;BME280;69983;42.370;-71.210;2024-03-06T08:26:09;101452.21;;;22.73;35.78
80629;BME280;69983;42.370;-71.210;2024-03-06T08:28:09;101459.12;;;22.90;35.55
80629;BME280;69983;42.370;-71.210;2024-03-06T08:30:10;101460.75;;;23.03;35.39
80629;BME280;69983;42.370;-71.210;2024-03-06T08:32:10;101467.64;;;22.61;35.88
80629;BME280;69983;42.370;-71.210;2024-03-06T08:34:10;101473.60;;;22.73;35.71
80629;BME280;69983;42.370;-71.210;2024-03-06T08:36:10;101476.23;;;22.77;35.65
80629;BME280;69983;42.370;-71.210;2024-03-06T08:38:13;101466.99;;;22.84;35.81
80629;BME280;69983;42.370;-71.210;2024-03-06T08:40:11;101462.12;;;22.67;35.66
80629;BME280;69983;42.370;-71.210;2024-03-06T08:42:10;101458.48;;;22.81;35.47
80629;BME280;69983;42.370;-71.210;2024-03-06T08:44:10;101458.69;;;22.60;35.41
80629;BME280;69983;42.370;-71.210;2024-03-06T08:46:10;101468.97;;;22.93;35.56
80629;BME280;69983;42.370;-71.210;2024-03-06T08:48:11;101465.77;;;22.51;35.51
80629;BME280;69983;42.370;-71.210;2024-03-06T08:50:14;101464.00;;;22.85;35.39
80629;BME280;69983;42.370;-71.210;2024-03-06T08:52:11;101462.65;;;22.79;35.45
80629;BME280;69983;42.370;-71.210;2024-03-06T08:54:11;101468.98;;;22.47;35.78
80629;BME280;69983;42.370;-71.210;2024-03-06T08:56:11;101473.75;;;22.92;35.21
80629;BME280;69983;42.370;-71.210;2024-03-06T08:58:11;101475.85;;;23.06;35.02
80629;BME280;69983;42.370;-71.210;2024-03-06T09:00:12;101476.06;;;22.96;35.09
80629;BME280;69983;42.370;-71.210;2024-03-06T09:02:14;101476.72;;;22.77;35.28
80629;BME280;69983;42.370;-71.210;2024-03-06T09:04:11;101478.38;;;22.81;35.25
80629;BME280;69983;42.370;-71.210;2024-03-06T09:06:11;101481.54;;;23.08;34.92
80629;BME280;69983;42.370;-71.210;2024-03-06T09:08:16;101482.49;;;22.89;35.41
80629;BME280;69983;42.370;-71.210;2024-03-06T09:10:12;101480.68;;;22.91;35.38
80629;BME280;69983;42.370;-71.210;2024-03-06T09:12:13;101480.84;;;22.66;35.36
80629;BME280;69983;42.370;-71.210;2024-03-06T09:14:12;101480.27;;;22.52;35.26
80629;BME280;69983;42.370;-71.210;2024-03-06T09:16:12;101480.11;;;22.77;35.21
80629;BME280;69983;42.370;-71.210;2024-03-06T09:18:12;101476.12;;;22.72;35.33
80629;BME280;69983;42.370;-71.210;2024-03-06T09:20:12;101483.21;;;22.66;35.35
80629;BME280;69983;42.370;-71.210;2024-03-06T09:22:12;101483.32;;;22.63;35.40
80629;BME280;69983;42.370;-71.210;2024-03-06T09:24:12;101487.74;;;22.62;35.44
80629;BME280;69983;42.370;-71.210;2024-03-06T09:26:12;101490.77;;;22.43;35.65
80629;BME280;69983;42.370;-71.210;2024-03-06T09:28:12;101494.74;;;22.58;35.72
80629;BME280;69983;42.370;-71.210;2024-03-06T09:30:14;101498.84;;;22.76;35.53
80629;BME280;69983;42.370;-71.210;2024-03-06T09:32:13;101504.31;;;22.28;35.80
80629;BME280;69983;42.370;-71.210;2024-03-06T09:34:13;101509.80;;;22.68;35.60
80629;BME280;69983;42.370;-71.210;2024-03-06T09:36:13;101509.05;;;22.99;35.22
80629;BME280;69983;42.370;-71.210;2024-03-06T09:38:13;101515.94;;;22.92;35.29
80629;BME280;69983;42.370;-71.210;2024-03-06T09:40:20;101522.66;;;22.64;35.32
80629;BME280;69983;42.370;-71.210;2024-03-06T09:42:15;101519.60;;;22.87;35.31
80629;BME280;69983;42.370;-71.210;2024-03-06T09:44:13;101515.44;;;22.64;35.27
80629;BME280;69983;42.370;-71.210;2024-03-06T09:46:14;101520.62;;;22.82;35.07
80629;BME280;69983;42.370;-71.210;2024-03-06T09:48:13;101521.12;;;22.80;35.32
80629;BME280;69983;42.370;-71.210;2024-03-06T09:50:17;101526.40;;;22.70;35.15
80629;BME280;69983;42.370;-71.210;2024-03-06T09:52:13;101528.36;;;22.83;35.28
80629;BME280;69983;42.370;-71.210;2024-03-06T09:54:15;101529.42;;;22.74;35.10
80629;BME280;69983;42.370;-71.210;2024-03-06T09:56:14;101533.84;;;22.64;35.22
80629;BME280;69983;42.370;-71.210;2024-03-06T09:58:14;101532.49;;;22.90;35.25
80629;BME280;69983;42.370;-71.210;2024-03-06T10:00:14;101529.56;;;22.48;35.46
80629;BME280;69983;42.370;-71.210;2024-03-06T10:02:24;101529.46;;;22.59;35.31
80629;BME280;69983;42.370;-71.210;2024-03-06T10:04:23;101529.81;;;22.74;35.19
80629;BME280;69983;42.370;-71.210;2024-03-06T10:06:14;101528.74;;;22.87;35.30
80629;BME280;69983;42.370;-71.210;2024-03-06T10:08:14;101526.74;;;22.71;35.18
80629;BME280;69983;42.370;-71.210;2024-03-06T10:10:15;101525.60;;;22.60;35.33
80629;BME280;69983;42.370;-71.210;2024-03-06T10:12:17;101523.47;;;22.60;35.32